Time;durP1;ratioP1;P1;durP2;ratioP2;P2;SDS_P1;SDS_P2;PMS_P1;PMS_P2;Temp;Humidity;BMP_temperature;BMP_pressure;BME280_temperature;BME280_humidity;BME280_pressure;Samples;Min_cycle;Max_cycle;Signal;HPM_P1;HPM_P2
2023/07/30 00:00:03;;;;;;;12.98;6.00;;;;;;;16.35;100.00;100334.88;5031475;28;20081;-79
2023/07/30 00:02:30;;;;;;;8.20;5.93;;;;;;;16.29;100.00;100333.06;5016646;28;20053;-78
2023/07/30 00:04:56;;;;;;;9.65;6.13;;;;;;;16.33;100.00;100338.75;5026960;28;20065;-79
2023/07/30 00:07:24;;;;;;;15.02;6.78;;;;;;;16.28;100.00;100344.63;5021432;28;20055;-79
2023/07/30 00:09:51;;;;;;;10.57;6.22;;;;;;;16.22;100.00;100340.94;5033895;28;20140;-80
2023/07/30 00:12:17;;;;;;;9.15;5.75;;;;;;;16.15;100.00;100337.47;5025553;28;20633;-80
2023/07/30 00:14:44;;;;;;;14.38;6.45;;;;;;;16.12;100.00;100332.59;5033903;28;20396;-80
2023/07/30 00:17:11;;;;;;;9.95;6.47;;;;;;;16.15;100.00;100345.41;5026220;28;20187;-79
2023/07/30 00:19:37;;;;;;;10.48;6.30;;;;;;;16.12;100.00;100337.06;5032017;28;20053;-78
2023/07/30 00:22:04;;;;;;;7.63;5.70;;;;;;;16.17;100.00;100340.72;5034291;28;20119;-79
2023/07/30 00:24:32;;;;;;;12.77;6.07;;;;;;;16.09;100.00;100335.63;5030339;28;20057;-77
2023/07/30 00:26:59;;;;;;;7.53;5.57;;;;;;;16.06;100.00;100345.81;5035325;28;20077;-79
2023/07/30 00:29:25;;;;;;;8.65;5.90;;;;;;;16.04;100.00;100348.63;5020210;28;20107;-78
2023/07/30 00:31:52;;;;;;;8.63;5.85;;;;;;;15.97;100.00;100353.06;5023819;28;20109;-80
2023/07/30 00:34:18;;;;;;;9.88;6.22;;;;;;;15.92;100.00;100340.47;5029215;28;20053;-80
2023/07/30 00:36:45;;;;;;;8.50;6.20;;;;;;;15.88;100.00;100341.06;5034627;28;20051;-80
2023/07/30 00:39:12;;;;;;;8.25;6.00;;;;;;;15.88;100.00;100348.97;5035881;28;20199;-78
2023/07/30 00:41:40;;;;;;;8.23;5.93;;;;;;;15.90;100.00;100352.22;5032061;28;20132;-80
2023/07/30 00:44:06;;;;;;;11.23;6.45;;;;;;;15.88;100.00;100351.63;5031452;28;20136;-78
2023/07/30 00:46:34;;;;;;;11.65;6.63;;;;;;;15.85;100.00;100350.19;5030185;28;20041;-80
2023/07/30 00:49:00;;;;;;;9.02;6.47;;;;;;;15.83;100.00;100351.38;5054714;28;20143;-79
2023/07/30 00:51:28;;;;;;;9.55;6.10;;;;;;;15.79;100.00;100355.44;5055395;28;20132;-81
2023/07/30 00:53:55;;;;;;;7.40;5.78;;;;;;;15.82;100.00;100353.22;5048914;28;20059;-79
2023/07/30 00:56:21;;;;;;;7.50;5.75;;;;;;;15.76;100.00;100359.28;5039264;28;20109;-80
2023/07/30 00:58:50;;;;;;;9.57;6.05;;;;;;;15.83;100.00;100364.59;5034678;28;20057;-80
2023/07/30 01:01:17;;;;;;;7.65;5.97;;;;;;;15.88;100.00;100360.34;5043828;28;20045;-79
2023/07/30 01:03:43;;;;;;;9.68;6.65;;;;;;;15.93;100.00;100357.13;5051543;28;20100;-80
2023/07/30 01:06:10;;;;;;;8.30;6.15;;;;;;;15.94;100.00;100364.03;5051804;28;20481;-80
2023/07/30 01:08:36;;;;;;;9.50;6.22;;;;;;;16.02;100.00;100370.97;5051974;28;20049;-80
2023/07/30 01:11:05;;;;;;;7.93;5.75;;;;;;;16.06;100.00;100373.00;5044216;28;20127;-80
2023/07/30 01:13:34;;;;;;;7.30;6.10;;;;;;;16.07;100.00;100379.88;5043844;28;20567;-79
2023/07/30 01:16:03;;;;;;;9.98;6.28;;;;;;;16.08;100.00;100373.59;5037732;28;20069;-79
2023/07/30 01:18:30;;;;;;;9.00;6.30;;;;;;;16.06;100.00;100359.81;5043859;28;20057;-79
2023/07/30 01:21:00;;;;;;;8.63;6.45;;;;;;;16.07;100.00;100374.59;5048597;28;20055;-80
2023/07/30 01:23:27;;;;;;;8.57;6.07;;;;;;;16.13;100.00;100384.38;5047986;28;20048;-80
2023/07/30 01:26:01;;;;;;;12.60;6.47;;;;;;;16.20;100.00;100374.66;5053705;28;20103;-79
2023/07/30 01:28:32;;;;;;;9.73;6.53;;;;;;;16.21;100.00;100376.28;5041504;28;20132;-81
2023/07/30 01:31:02;;;;;;;11.73;6.75;;;;;;;16.29;100.00;100379.75;5044532;28;20123;-79
2023/07/30 01:33:30;;;;;;;13.93;6.30;;;;;;;16.37;100.00;100384.88;5043793;28;20321;-80
2023/07/30 01:35:58;;;;;;;10.43;6.00;;;;;;;16.38;100.00;100378.56;5052927;28;20073;-79
2023/07/30 01:38:27;;;;;;;11.50;6.50;;;;;;;16.45;100.00;100384.69;5053110;28;20484;-77
2023/07/30 01:40:54;;;;;;;11.35;6.07;;;;;;;16.43;100.00;100379.59;5045007;28;20496;-80
2023/07/30 01:43:20;;;;;;;10.95;5.93;;;;;;;16.43;100.00;100389.34;5036189;28;20137;-79
2023/07/30 01:45:47;;;;;;;12.50;6.35;;;;;;;16.43;100.00;100392.00;5037954;28;20128;-80
2023/07/30 01:48:13;;;;;;;10.63;5.88;;;;;;;16.54;100.00;100383.50;5053992;28;20455;-79
2023/07/30 01:50:40;;;;;;;8.55;5.63;;;;;;;16.60;100.00;100380.81;5054446;28;20076;-79
2023/07/30 01:53:06;;;;;;;8.63;5.35;;;;;;;16.61;100.00;100384.28;5046159;28;20128;-79
2023/07/30 01:55:34;;;;;;;9.52;5.72;;;;;;;16.58;100.00;100384.69;5037912;28;20115;-77
2023/07/30 01:58:01;;;;;;;14.75;5.80;;;;;;;16.65;100.00;100390.81;5034822;28;20045;-79
2023/07/30 02:00:28;;;;;;;11.57;5.40;;;;;;;16.65;100.00;100387.38;5034932;28;20060;-81
2023/07/30 02:02:54;;;;;;;11.95;5.43;;;;;;;16.67;100.00;100383.50;5050663;28;20085;-81
2023/07/30 02:05:21;;;;;;;9.95;5.25;;;;;;;16.67;100.00;100385.34;5055972;28;20052;-80
2023/07/30 02:07:48;;;;;;;8.63;5.43;;;;;;;16.69;100.00;100378.84;5058504;28;20483;-79
2023/07/30 02:10:14;;;;;;;8.88;5.13;;;;;;;16.75;100.00;100383.31;5055642;28;20135;-81
2023/07/30 02:12:42;;;;;;;9.80;5.53;;;;;;;16.77;100.00;100381.28;5052894;28;20459;-84
2023/07/30 02:15:09;;;;;;;12.18;5.40;;;;;;;16.76;100.00;100374.38;5057367;28;20084;-81
2023/07/30 02:17:36;;;;;;;13.13;5.60;;;;;;;16.73;100.00;100373.97;5052176;28;20580;-82
2023/07/30 02:20:03;;;;;;;9.80;5.30;;;;;;;16.73;100.00;100374.78;5058033;28;20485;-79
2023/07/30 02:22:33;;;;;;;8.57;5.13;;;;;;;16.69;100.00;100373.56;5053381;28;20049;-81
2023/07/30 02:24:59;;;;;;;9.52;4.97;;;;;;;16.57;100.00;100372.50;5054935;28;20081;-82
2023/07/30 02:27:26;;;;;;;9.05;4.95;;;;;;;16.50;100.00;100375.16;5050447;28;20128;-81
2023/07/30 02:29:54;;;;;;;10.32;5.15;;;;;;;16.57;100.00;100385.69;5052402;28;20081;-81
2023/07/30 02:32:20;;;;;;;15.10;5.30;;;;;;;16.58;100.00;100376.75;5046930;28;20053;-82
2023/07/30 02:34:47;;;;;;;8.85;5.57;;;;;;;16.59;100.00;100368.63;5033040;28;20132;-77
2023/07/30 02:37:13;;;;;;;13.73;5.32;;;;;;;16.59;100.00;100378.38;5045773;28;20128;-80
2023/07/30 02:39:40;;;;;;;15.25;5.70;;;;;;;16.49;100.00;100383.28;5061552;28;20056;-80
2023/07/30 02:42:07;;;;;;;13.00;5.15;;;;;;;16.45;100.00;100382.03;5062771;28;20099;-79
2023/07/30 02:44:34;;;;;;;11.18;5.00;;;;;;;16.48;100.00;100387.75;5062042;28;20084;-78
2023/07/30 02:47:02;;;;;;;15.52;5.65;;;;;;;16.46;100.00;100383.66;5055987;28;20076;-77
2023/07/30 02:49:28;;;;;;;9.25;5.13;;;;;;;16.44;100.00;100398.91;5053868;28;20054;-81
2023/07/30 02:51:55;;;;;;;11.68;5.60;;;;;;;16.46;100.00;100396.88;5055229;28;20116;-77
2023/07/30 02:54:22;;;;;;;9.10;5.53;;;;;;;16.48;100.00;100405.41;5058834;28;20065;-78
2023/07/30 02:56:48;;;;;;;9.15;4.97;;;;;;;16.50;100.00;100406.03;5049909;28;20037;-79
2023/07/30 02:59:15;;;;;;;10.85;5.60;;;;;;;16.45;100.00;100409.25;5057519;28;20076;-78
2023/07/30 03:01:41;;;;;;;13.82;5.45;;;;;;;16.50;100.00;100416.59;5045323;28;20072;-79
2023/07/30 03:04:09;;;;;;;9.18;4.85;;;;;;;16.47;100.00;100415.16;5045868;28;20132;-78
2023/07/30 03:06:36;;;;;;;10.10;5.38;;;;;;;16.44;100.00;100422.66;5045931;28;20129;-80
2023/07/30 03:09:03;;;;;;;10.65;5.10;;;;;;;16.54;100.00;100434.44;5051819;28;20077;-78
2023/07/30 03:11:30;;;;;;;12.00;5.20;;;;;;;16.54;100.00;100420.47;5054414;28;20056;-81
2023/07/30 03:13:56;;;;;;;12.27;5.55;;;;;;;16.52;100.00;100411.94;5054751;28;20060;-79
2023/07/30 03:16:23;;;;;;;9.93;4.55;;;;;;;16.55;100.00;100408.84;5036930;28;20475;-79
2023/07/30 03:18:49;;;;;;;12.93;5.65;;;;;;;16.50;100.00;100400.75;5044260;28;20061;-80
2023/07/30 03:21:18;;;;;;;11.38;5.53;;;;;;;16.55;100.00;100401.75;5047570;28;20120;-79
2023/07/30 03:23:44;;;;;;;12.52;5.32;;;;;;;16.47;100.00;100411.72;5031837;28;20053;-80
2023/07/30 03:26:11;;;;;;;12.63;4.63;;;;;;;16.56;100.00;100411.28;5040024;28;20131;-79
2023/07/30 03:28:38;;;;;;;7.85;4.25;;;;;;;16.43;100.00;100403.38;5029390;28;20052;-80
2023/07/30 03:31:05;;;;;;;9.02;4.15;;;;;;;16.25;100.00;100409.19;5035804;28;20553;-82
2023/07/30 03:33:32;;;;;;;11.85;4.32;;;;;;;16.19;100.00;100407.34;5055341;28;20045;-81
2023/07/30 03:35:58;;;;;;;8.48;4.10;;;;;;;16.12;100.00;100418.88;5050079;28;20037;-80
2023/07/30 03:38:26;;;;;;;9.02;4.07;;;;;;;16.09;100.00;100414.81;5020066;28;20128;-77
2023/07/30 03:40:53;;;;;;;8.63;4.00;;;;;;;15.92;99.60;100392.44;5029726;28;20053;-78
2023/07/30 03:43:19;;;;;;;8.40;4.45;;;;;;;16.01;99.12;100401.00;5029212;28;20499;-78
2023/07/30 03:45:46;;;;;;;8.10;3.90;;;;;;;15.97;98.85;100395.31;5024683;28;20121;-77
2023/07/30 03:48:12;;;;;;;8.68;4.20;;;;;;;15.92;98.73;100392.44;5035153;28;20067;-78
2023/07/30 03:50:39;;;;;;;7.22;3.67;;;;;;;15.83;99.22;100404.97;5027060;28;20124;-78
2023/07/30 03:53:06;;;;;;;12.10;4.10;;;;;;;15.80;99.95;100409.81;5038940;28;20128;-78
2023/07/30 03:55:34;;;;;;;10.20;4.20;;;;;;;15.82;100.00;100418.34;5051763;28;20513;-79
2023/07/30 03:58:00;;;;;;;7.47;3.70;;;;;;;15.70;100.00;100425.19;5045790;28;20120;-79
2023/07/30 04:00:30;;;;;;;7.50;4.00;;;;;;;15.69;100.00;100431.47;5049668;28;20126;-80
2023/07/30 04:02:57;;;;;;;8.43;4.22;;;;;;;15.77;100.00;100441.88;5030679;28;20061;-79
2023/07/30 04:05:23;;;;;;;7.57;4.35;;;;;;;15.78;100.00;100443.50;5052686;28;20447;-79
2023/07/30 04:07:50;;;;;;;10.30;4.18;;;;;;;15.92;100.00;100447.84;5054073;28;20072;-79
2023/07/30 04:10:19;;;;;;;11.40;4.25;;;;;;;15.96;100.00;100443.00;5051689;28;20059;-80
2023/07/30 04:12:47;;;;;;;10.40;4.43;;;;;;;16.06;100.00;100441.63;5040087;28;20053;-80
2023/07/30 04:15:15;;;;;;;11.80;4.35;;;;;;;16.01;100.00;100433.47;5048925;28;20422;-78
2023/07/30 04:17:42;;;;;;;8.75;4.55;;;;;;;15.99;100.00;100424.94;5042266;28;20073;-81
2023/07/30 04:20:10;;;;;;;7.68;4.00;;;;;;;16.09;100.00;100424.56;5042109;28;20538;-80
2023/07/30 04:22:37;;;;;;;10.63;4.28;;;;;;;16.10;99.07;100427.00;5049255;28;20079;-80
2023/07/30 04:25:04;;;;;;;6.32;4.00;;;;;;;16.12;98.10;100408.34;5051164;28;20072;-79
2023/07/30 04:27:30;;;;;;;7.50;3.92;;;;;;;16.11;98.72;100418.06;5053276;28;20579;-78
2023/07/30 04:29:58;;;;;;;10.95;4.03;;;;;;;16.27;100.00;100428.28;5054161;28;20091;-80
2023/07/30 04:32:25;;;;;;;11.30;4.13;;;;;;;16.15;100.00;100429.88;5045708;28;20080;-80
2023/07/30 04:34:51;;;;;;;9.70;4.70;;;;;;;16.16;100.00;100436.78;5054717;28;20108;-80
2023/07/30 04:37:18;;;;;;;9.18;4.13;;;;;;;16.11;100.00;100430.47;5054139;28;20231;-81
2023/07/30 04:39:44;;;;;;;11.07;4.30;;;;;;;16.16;100.00;100436.78;5054954;28;20053;-80
2023/07/30 04:42:13;;;;;;;12.00;4.43;;;;;;;16.23;100.00;100450.81;5045634;28;20059;-80
2023/07/30 04:44:39;;;;;;;8.25;4.72;;;;;;;16.25;100.00;100450.63;5053632;28;20044;-79
2023/07/30 04:47:08;;;;;;;7.47;4.18;;;;;;;16.26;100.00;100452.25;5045025;28;20466;-80
2023/07/30 04:49:36;;;;;;;8.77;4.25;;;;;;;16.31;100.00;100459.59;5053514;28;20088;-78
2023/07/30 04:52:03;;;;;;;11.43;4.63;;;;;;;16.40;100.00;100453.13;5052357;28;20053;-80
2023/07/30 04:54:30;;;;;;;11.30;4.95;;;;;;;16.47;100.00;100443.41;5046219;28;20060;-80
2023/07/30 04:56:57;;;;;;;8.60;4.43;;;;;;;16.50;100.00;100450.94;5052860;28;20123;-79
2023/07/30 04:59:23;;;;;;;11.18;4.63;;;;;;;16.54;100.00;100445.03;5043915;28;20116;-81
2023/07/30 05:01:50;;;;;;;13.75;5.00;;;;;;;16.53;100.00;100443.44;5052748;28;20048;-82
2023/07/30 05:04:18;;;;;;;8.63;4.75;;;;;;;16.58;100.00;100440.97;5045260;28;20109;-82
2023/07/30 05:06:44;;;;;;;12.13;4.63;;;;;;;16.57;100.00;100443.81;5054286;28;20051;-82
2023/07/30 05:09:11;;;;;;;8.73;3.70;;;;;;;16.43;100.00;100436.88;5055651;28;20475;-81
2023/07/30 05:11:39;;;;;;;10.23;4.40;;;;;;;16.48;100.00;100443.19;5044612;28;20109;-82
2023/07/30 05:14:06;;;;;;;9.88;4.30;;;;;;;16.41;100.00;100433.63;5054990;28;20136;-81
2023/07/30 05:16:32;;;;;;;15.13;4.25;;;;;;;16.43;100.00;100439.53;5048014;28;20045;-82
2023/07/30 05:18:59;;;;;;;9.63;4.53;;;;;;;16.39;100.00;100435.66;5031138;28;20210;-82
2023/07/30 05:21:42;;;;;;;8.25;4.00;;;;;;;16.30;98.85;100423.63;5033413;28;20136;-81
2023/07/30 05:24:09;;;;;;;11.10;4.05;;;;;;;16.30;98.67;100418.34;5052022;28;20096;-82
2023/07/30 05:26:36;;;;;;;8.50;3.53;;;;;;;16.29;97.00;100409.63;5053268;28;20053;-81
2023/07/30 05:29:03;;;;;;;6.18;3.47;;;;;;;16.32;96.51;100409.22;5066285;28;20117;-79
2023/07/30 05:31:29;;;;;;;7.80;3.70;;;;;;;16.35;95.40;100408.81;5049224;28;20057;-80
2023/07/30 05:33:56;;;;;;;6.55;3.45;;;;;;;16.44;95.22;100412.09;5056800;28;20095;-80
2023/07/30 05:36:22;;;;;;;10.27;3.90;;;;;;;16.41;95.34;100417.78;5059231;28;20045;-80
2023/07/30 05:38:50;;;;;;;8.05;3.63;;;;;;;16.57;95.22;100418.22;5056559;28;20052;-79
2023/07/30 05:41:17;;;;;;;7.90;3.67;;;;;;;16.61;95.82;100421.28;5044624;28;20055;-79
2023/07/30 05:43:44;;;;;;;10.15;3.72;;;;;;;16.66;96.34;100426.81;5051516;28;20469;-80
2023/07/30 05:46:10;;;;;;;6.97;3.63;;;;;;;16.64;96.10;100431.47;5047939;28;20132;-81
2023/07/30 05:48:37;;;;;;;6.75;3.38;;;;;;;16.49;97.89;100436.09;5058287;28;20135;-81
2023/07/30 05:51:03;;;;;;;9.77;3.30;;;;;;;16.48;97.83;100432.63;5044279;28;20044;-79
2023/07/30 05:53:30;;;;;;;6.15;3.10;;;;;;;16.48;97.32;100423.91;5049177;28;20053;-82
2023/07/30 05:55:58;;;;;;;6.65;3.17;;;;;;;16.53;97.98;100424.94;5055612;28;20491;-81
2023/07/30 05:58:24;;;;;;;4.70;3.05;;;;;;;16.55;97.03;100427.34;5057901;28;20049;-80
2023/07/30 06:00:51;;;;;;;9.98;3.08;;;;;;;16.57;97.30;100420.84;5049724;28;20122;-80
2023/07/30 06:03:18;;;;;;;6.18;3.10;;;;;;;16.66;97.46;100431.25;5039625;28;20164;-79
2023/07/30 06:05:44;;;;;;;9.07;4.07;;;;;;;16.76;97.87;100435.16;5040966;28;20100;-80
2023/07/30 06:08:11;;;;;;;10.93;3.60;;;;;;;16.78;97.70;100437.59;5055734;28;20135;-78
2023/07/30 06:10:38;;;;;;;9.43;3.60;;;;;;;16.79;96.64;100447.16;5046740;28;20576;-80
2023/07/30 06:13:06;;;;;;;7.80;3.85;;;;;;;16.83;96.70;100445.75;5043264;28;20076;-80
2023/07/30 06:15:33;;;;;;;7.85;3.53;;;;;;;16.89;95.93;100443.09;5052036;28;20041;-80
2023/07/30 06:17:59;;;;;;;7.57;3.35;;;;;;;16.92;95.68;100448.00;5053070;28;20063;-78
2023/07/30 06:20:26;;;;;;;8.90;3.15;;;;;;;16.98;95.51;100453.50;5056032;28;20490;-78
2023/07/30 06:22:53;;;;;;;9.27;3.50;;;;;;;16.92;95.35;100442.72;5055693;28;20180;-79
2023/07/30 06:25:19;;;;;;;5.43;3.33;;;;;;;17.02;95.81;100452.03;5053225;28;20110;-80
2023/07/30 06:27:46;;;;;;;9.38;3.80;;;;;;;16.84;96.69;100450.81;5056611;28;20051;-78
2023/07/30 06:30:14;;;;;;;8.77;3.42;;;;;;;16.87;95.77;100445.13;5055238;28;20136;-79
2023/07/30 06:32:40;;;;;;;10.57;3.08;;;;;;;16.88;95.62;100452.06;5049876;28;20059;-79
2023/07/30 06:35:08;;;;;;;4.78;2.88;;;;;;;16.87;94.90;100453.06;5055145;28;20152;-79
2023/07/30 06:37:36;;;;;;;9.07;3.35;;;;;;;16.88;95.42;100459.16;5045435;28;20127;-82
2023/07/30 06:40:06;;;;;;;8.55;3.22;;;;;;;16.86;95.44;100451.44;5057598;28;20391;-83
2023/07/30 06:42:32;;;;;;;9.75;3.65;;;;;;;16.92;94.95;100455.09;5043436;28;20419;-82
2023/07/30 06:44:59;;;;;;;6.10;3.30;;;;;;;16.80;93.85;100454.06;5050987;28;20088;-78
2023/07/30 06:47:30;;;;;;;6.47;2.95;;;;;;;16.90;93.06;100452.66;5047818;28;20487;-81
2023/07/30 06:49:57;;;;;;;6.97;3.10;;;;;;;16.94;92.37;100449.63;5056493;28;20084;-80
2023/07/30 06:52:23;;;;;;;6.82;2.92;;;;;;;16.86;91.60;100459.38;5043943;28;20053;-81
2023/07/30 06:54:50;;;;;;;5.82;2.60;;;;;;;16.88;91.88;100461.81;5052036;28;20503;-77
2023/07/30 06:57:17;;;;;;;8.32;3.10;;;;;;;17.02;91.57;100463.44;5039498;28;20121;-79
2023/07/30 06:59:43;;;;;;;7.10;3.00;;;;;;;17.09;92.01;100468.72;5048686;28;20091;-79
2023/07/30 07:02:10;;;;;;;8.98;3.50;;;;;;;16.94;92.60;100473.41;5044643;28;20118;-80
2023/07/30 07:04:38;;;;;;;8.52;3.38;;;;;;;17.08;91.92;100464.44;5056733;28;20485;-80
2023/07/30 07:07:05;;;;;;;5.00;3.10;;;;;;;17.24;91.03;100464.06;5056242;28;20049;-80
2023/07/30 07:09:32;;;;;;;7.43;3.03;;;;;;;17.15;91.35;100468.72;5055826;28;20052;-79
2023/07/30 07:11:59;;;;;;;11.43;3.42;;;;;;;17.34;91.28;100463.66;5046353;28;20055;-77
2023/07/30 07:14:25;;;;;;;7.18;3.60;;;;;;;17.55;90.05;100461.59;5056937;28;20144;-81
2023/07/30 07:16:55;;;;;;;9.30;3.63;;;;;;;17.66;89.49;100459.38;5042157;28;20109;-81
2023/07/30 07:19:22;;;;;;;10.10;4.03;;;;;;;17.91;89.83;100460.34;5046004;28;20057;-81
2023/07/30 07:21:50;;;;;;;10.32;3.83;;;;;;;17.92;88.64;100467.28;5056092;28;20087;-80
2023/07/30 07:24:17;;;;;;;11.50;3.55;;;;;;;18.10;88.32;100464.75;5037596;28;20136;-80
2023/07/30 07:26:44;;;;;;;13.38;3.95;;;;;;;17.98;88.21;100471.72;5051638;28;20052;-79
2023/07/30 07:29:11;;;;;;;8.98;3.92;;;;;;;18.10;87.70;100485.13;5038002;28;20049;-80
2023/07/30 07:31:38;;;;;;;11.43;3.90;;;;;;;18.08;87.86;100474.75;5034800;28;20081;-81
2023/07/30 07:34:04;;;;;;;8.13;3.83;;;;;;;18.19;88.80;100491.81;5051562;28;20055;-81
2023/07/30 07:36:31;;;;;;;9.25;3.40;;;;;;;18.06;88.05;100492.66;5044739;28;20107;-81
2023/07/30 07:38:59;;;;;;;12.70;4.05;;;;;;;18.03;88.33;100493.09;5043032;28;20141;-81
2023/07/30 07:41:26;;;;;;;11.90;3.72;;;;;;;18.19;88.25;100492.63;5042959;28;20059;-81
2023/07/30 07:43:53;;;;;;;9.68;3.92;;;;;;;18.02;88.00;100486.16;5044372;28;20052;-80
2023/07/30 07:46:20;;;;;;;13.10;4.43;;;;;;;18.17;88.48;100499.16;5054095;28;20099;-81
2023/07/30 07:48:47;;;;;;;12.95;4.28;;;;;;;18.05;88.27;100488.41;5042472;28;20042;-79
2023/07/30 07:51:13;;;;;;;9.65;4.03;;;;;;;18.08;88.33;100500.41;5039765;28;20049;-82
2023/07/30 07:53:40;;;;;;;7.53;4.03;;;;;;;18.02;88.27;100496.75;5034804;28;20099;-81
2023/07/30 07:56:08;;;;;;;9.50;4.15;;;;;;;17.94;89.66;100493.53;5036975;28;20065;-80
2023/07/30 07:58:35;;;;;;;10.73;4.25;;;;;;;18.00;88.62;100490.84;5046913;28;20045;-80
2023/07/30 08:01:02;;;;;;;9.35;3.92;;;;;;;18.28;88.53;100489.75;5050823;28;20493;-80
2023/07/30 08:03:28;;;;;;;11.52;4.13;;;;;;;18.50;88.39;100488.41;5041502;28;20131;-80
2023/07/30 08:05:55;;;;;;;11.63;4.43;;;;;;;18.62;87.25;100478.81;5042107;28;20124;-80
2023/07/30 08:08:22;;;;;;;15.02;4.50;;;;;;;18.92;86.31;100479.03;5046739;28;20343;-80
2023/07/30 08:10:48;;;;;;;11.25;4.47;;;;;;;19.38;84.94;100481.34;5053840;28;20128;-81
2023/07/30 08:13:16;;;;;;;11.88;4.10;;;;;;;19.00;85.31;100492.03;5043483;28;20061;-80
2023/07/30 08:15:43;;;;;;;11.50;4.68;;;;;;;18.85;87.17;100492.34;5034996;28;20136;-80
2023/07/30 08:18:10;;;;;;;13.35;4.60;;;;;;;18.64;86.90;100499.81;5038163;28;20052;-81
2023/07/30 08:20:36;;;;;;;13.13;4.20;;;;;;;18.24;87.83;100505.25;5039391;28;20080;-79
2023/07/30 08:23:03;;;;;;;14.30;4.40;;;;;;;18.02;88.59;100517.13;5037640;28;20474;-80
2023/07/30 08:25:30;;;;;;;14.00;5.07;;;;;;;17.94;89.37;100515.53;5035195;28;20095;-80
2023/07/30 08:27:57;;;;;;;14.45;4.45;;;;;;;17.87;90.60;100520.03;5040954;28;20083;-80
2023/07/30 08:30:25;;;;;;;14.75;4.82;;;;;;;17.97;91.05;100520.38;5041022;28;20229;-79
2023/07/30 08:32:51;;;;;;;15.05;5.53;;;;;;;17.74;91.01;100514.72;5033245;28;20049;-80
2023/07/30 08:35:18;;;;;;;12.13;5.22;;;;;;;18.18;90.48;100517.50;5033110;28;20109;-77
2023/07/30 08:37:44;;;;;;;10.57;4.32;;;;;;;18.97;88.66;100500.41;5036526;28;20076;-78
2023/07/30 08:40:12;;;;;;;13.07;4.75;;;;;;;19.50;85.16;100494.72;5058309;28;20083;-79
2023/07/30 08:42:38;;;;;;;14.90;4.32;;;;;;;20.07;83.15;100500.72;5060759;28;20116;-79
2023/07/30 08:45:07;;;;;;;15.48;4.68;;;;;;;20.67;81.21;100491.00;5051080;28;20128;-78
2023/07/30 08:47:36;;;;;;;15.02;4.38;;;;;;;20.80;79.47;100479.34;5049173;28;20045;-81
2023/07/30 08:50:03;;;;;;;8.88;4.00;;;;;;;20.39;80.59;100488.09;5035931;28;20056;-80
2023/07/30 08:52:30;;;;;;;10.88;4.55;;;;;;;20.45;80.16;100497.84;5046329;28;20060;-80
2023/07/30 08:55:00;;;;;;;12.27;4.20;;;;;;;20.42;79.37;100493.78;5047894;28;20088;-81
2023/07/30 08:57:29;;;;;;;10.48;3.90;;;;;;;20.52;79.27;100495.91;5045347;28;20049;-80
2023/07/30 09:00:03;;;;;;;13.32;4.78;;;;;;;19.90;79.99;100495.16;5049572;28;20136;-78
2023/07/30 09:02:34;;;;;;;10.55;4.50;;;;;;;20.23;79.79;100499.31;5034006;28;20042;-79
2023/07/30 09:05:03;;;;;;;9.77;3.90;;;;;;;20.36;79.00;100489.31;5050224;28;20098;-79
2023/07/30 09:07:29;;;;;;;9.93;4.57;;;;;;;20.54;79.04;100501.81;5042502;28;20045;-79
2023/07/30 09:09:55;;;;;;;14.68;4.40;;;;;;;20.35;78.71;100497.50;5053879;28;20113;-80
2023/07/30 09:12:27;;;;;;;10.60;3.75;;;;;;;20.05;79.76;100506.25;5041085;28;20136;-79
2023/07/30 09:14:53;;;;;;;14.47;4.70;;;;;;;19.67;80.09;100508.28;5052715;28;20045;-79
2023/07/30 09:17:20;;;;;;;8.90;4.00;;;;;;;19.81;80.95;100507.94;5047123;28;20127;-78
2023/07/30 09:19:47;;;;;;;15.85;4.30;;;;;;;19.67;80.60;100513.59;5037301;28;20444;-79
2023/07/30 09:22:21;;;;;;;12.20;4.22;;;;;;;19.93;79.75;100518.63;5052001;28;20131;-78
2023/07/30 09:24:47;;;;;;;13.90;4.10;;;;;;;20.01;79.30;100506.91;5053002;28;20132;-81
2023/07/30 09:27:14;;;;;;;9.30;4.07;;;;;;;20.39;78.38;100510.16;5040400;28;20570;-80
2023/07/30 09:29:51;;;;;;;11.40;4.07;;;;;;;20.51;76.78;100510.22;5051969;28;20151;-79
2023/07/30 09:32:18;;;;;;;10.73;4.00;;;;;;;21.32;74.98;100509.69;5047749;28;20534;-79
2023/07/30 09:34:46;;;;;;;9.93;3.80;;;;;;;21.44;74.79;100513.19;5045405;28;20052;-79
2023/07/30 09:37:15;;;;;;;8.50;4.03;;;;;;;21.50;73.40;100501.63;5053268;28;20072;-80
2023/07/30 09:39:44;;;;;;;14.10;4.30;;;;;;;22.38;72.29;100513.13;5056168;28;20049;-77
2023/07/30 09:42:10;;;;;;;12.82;4.18;;;;;;;21.79;71.98;100499.88;5050909;28;20091;-79
2023/07/30 09:44:39;;;;;;;11.30;3.60;;;;;;;21.74;71.59;100496.31;5052966;28;20513;-80
2023/07/30 09:47:09;;;;;;;9.43;4.10;;;;;;;22.04;71.03;100517.50;5040377;28;20057;-79
2023/07/30 09:49:36;;;;;;;10.50;4.15;;;;;;;21.88;72.08;100515.50;5048042;28;20041;-78
2023/07/30 09:52:04;;;;;;;15.93;4.32;;;;;;;21.66;71.62;100512.63;5036347;28;20103;-81
2023/07/30 09:54:31;;;;;;;9.02;4.00;;;;;;;21.20;71.64;100514.19;5035597;28;20064;-80
2023/07/30 09:57:00;;;;;;;10.15;3.95;;;;;;;21.26;73.00;100526.59;5035143;28;20143;-80
2023/07/30 09:59:26;;;;;;;10.70;3.90;;;;;;;21.58;73.09;100515.63;5030577;28;20136;-80
2023/07/30 10:01:55;;;;;;;10.18;4.20;;;;;;;21.25;73.93;100522.31;5044474;28;20116;-81
2023/07/30 10:04:23;;;;;;;11.00;4.18;;;;;;;21.69;72.14;100512.19;5053963;28;20076;-80
2023/07/30 10:07:02;;;;;;;12.40;4.07;;;;;;;21.49;72.05;100508.00;5057320;28;20049;-80
2023/07/30 10:09:34;;;;;;;8.73;3.50;;;;;;;21.37;71.81;100511.66;5056001;28;20045;-79
2023/07/30 10:12:04;;;;;;;11.85;3.88;;;;;;;21.14;72.72;100509.78;5055340;28;20499;-78
2023/07/30 10:14:31;;;;;;;10.52;3.95;;;;;;;21.55;71.09;100505.44;5049836;28;20296;-80
2023/07/30 10:17:01;;;;;;;7.93;3.80;;;;;;;21.93;70.17;100495.13;5040177;28;20140;-80
2023/07/30 10:19:29;;;;;;;11.07;4.20;;;;;;;22.22;69.99;100492.53;5055960;28;20052;-79
2023/07/30 10:22:00;;;;;;;12.98;3.70;;;;;;;22.53;69.85;100500.09;5055930;28;20049;-80
2023/07/30 10:24:27;;;;;;;10.52;3.60;;;;;;;22.07;67.54;100477.88;5056032;28;20466;-79
2023/07/30 10:26:57;;;;;;;8.15;3.72;;;;;;;22.34;68.11;100486.13;5040207;28;20050;-79
2023/07/30 10:29:25;;;;;;;11.25;3.80;;;;;;;22.11;68.64;100487.03;5051387;28;20045;-78
2023/07/30 10:31:54;;;;;;;9.52;3.72;;;;;;;22.10;68.93;100489.91;5040287;28;20119;-81
2023/07/30 10:34:22;;;;;;;10.70;3.35;;;;;;;22.24;68.94;100490.44;5042605;28;20659;-80
2023/07/30 10:36:50;;;;;;;10.73;4.28;;;;;;;21.73;69.81;100492.03;5055786;28;20137;-78
2023/07/30 10:39:18;;;;;;;11.23;4.00;;;;;;;21.66;70.06;100494.81;5048076;28;20041;-78
2023/07/30 10:41:45;;;;;;;11.98;3.67;;;;;;;21.44;70.03;100507.88;5038517;28;20046;-80
2023/07/30 10:44:25;;;;;;;10.00;3.78;;;;;;;21.38;70.45;100500.00;5037170;28;20060;-79
2023/07/30 10:46:52;;;;;;;8.60;3.50;;;;;;;21.56;71.99;100513.22;5046863;28;20095;-80
2023/07/30 10:49:19;;;;;;;11.63;3.75;;;;;;;21.93;70.82;100499.63;5053988;28;20135;-79
2023/07/30 10:51:45;;;;;;;7.60;3.28;;;;;;;22.68;68.56;100491.59;5041825;28;20530;-77
2023/07/30 10:54:12;;;;;;;6.13;3.28;;;;;;;22.66;67.83;100478.50;5045023;28;20141;-79
2023/07/30 10:56:40;;;;;;;6.28;3.05;;;;;;;22.02;66.98;100467.09;5033434;28;20128;-80
2023/07/30 10:59:07;;;;;;;9.13;3.13;;;;;;;22.33;66.19;100473.03;5033900;28;20132;-78
2023/07/30 11:01:39;;;;;;;6.53;2.70;;;;;;;22.54;65.60;100476.91;5033573;28;20061;-79
2023/07/30 11:04:11;;;;;;;6.53;2.85;;;;;;;22.16;64.74;100449.00;5038439;28;20045;-77
2023/07/30 11:06:38;;;;;;;4.70;2.53;;;;;;;21.91;65.40;100467.09;5043450;28;20063;-80
2023/07/30 11:09:05;;;;;;;6.72;3.10;;;;;;;21.62;66.32;100482.19;5056390;28;20056;-81
2023/07/30 11:11:32;;;;;;;7.40;3.20;;;;;;;21.38;66.15;100482.16;5044116;28;20508;-78
2023/07/30 11:13:59;;;;;;;7.47;3.22;;;;;;;21.37;66.39;100477.06;5049429;28;20057;-79
2023/07/30 11:16:26;;;;;;;8.38;3.13;;;;;;;21.55;66.73;100490.28;5038164;28;20053;-78